CDT,Max TemperatureF,Mean TemperatureF,Min TemperatureF,Max Dew PointF,MeanDew PointF,Min DewpointF,Max Humidity, Mean Humidity, Min Humidity, Max Sea Level PressureIn, Mean Sea Level PressureIn, Min Sea Level PressureIn, Max VisibilityMiles, Mean VisibilityMiles, Min VisibilityMiles, Max Wind SpeedMPH, Mean Wind SpeedMPH, Max Gust SpeedMPH,PrecipitationIn, CloudCover, Events, WindDirDegrees
2013-3-1,53,43,32,30,26,21,85,58,30,30.26,30.20,30.14,10,9,2,18,8,25,0.00,1,,332
2013-3-2,49,39,29,22,19,15,69,50,31,30.36,30.29,30.24,10,10,10,18,8,23,0.00,1,,333
2013-3-3,62,45,27,34,27,21,78,54,29,30.26,30.10,29.91,10,10,10,15,7,22,0.00,0,,166
2013-3-4,78,64,49,58,49,36,86,63,40,29.88,29.74,29.63,10,10,10,23,15,39,0.00,1,,192
2013-3-5,64,53,41,58,30,19,84,54,23,30.32,30.15,29.77,10,10,10,24,13,32,0.00,2,,306
2013-3-6,59,46,33,27,22,18,64,43,21,30.43,30.33,30.26,10,10,10,12,6,15,0.00,0,,357
2013-3-7,64,50,35,33,31,29,82,56,30,30.35,30.27,30.20,10,10,10,13,5,16,0.00,0,,132
2013-3-8,68,55,41,40,36,33,73,51,29,30.30,30.20,30.09,10,10,9,16,6,21,T,2,,119
2013-3-9,69,62,55,59,51,40,78,65,51,30.08,29.94,29.78,10,10,9,21,12,31,T,5,Rain,148
2013-3-10,64,53,42,60,49,31,100,78,55,30.00,29.83,29.67,10,8,1,25,13,35,0.91,7,Rain,265
2013-3-11,54,44,34,31,28,26,70,54,38,30.08,30.02,29.98,10,10,10,22,11,26,0.00,1,,299
2013-3-12,64,47,30,36,30,23,92,59,25,30.29,30.18,30.07,10,10,10,10,3,14,0.00,0,,342
2013-3-13,64,49,34,38,29,23,76,50,24,30.46,30.39,30.30,10,10,10,12,4,16,0.00,0,,22
2013-3-14,74,57,39,46,36,28,62,47,31,30.41,30.31,30.19,10,10,7,17,7,25,0.00,0,,189
2013-3-15,80,66,52,53,49,46,89,64,38,30.19,30.06,29.93,10,10,9,21,12,28,0.00,0,,211
2013-3-16,81,69,56,56,53,51,100,68,36,29.93,29.86,29.76,10,10,10,18,11,24,0.00,0,,188
2013-3-17,76,68,60,61,59,55,97,78,58,29.84,29.77,29.66,10,10,9,20,9,28,0.00,6,,194
2013-3-18,72,59,46,63,56,41,100,74,47,30.03,29.80,29.67,10,8,1,16,6,22,0.00,6,Rain,348
2013-3-19,66,52,37,41,36,30,100,63,26,30.16,30.08,30.00,10,10,10,15,6,22,0.00,0,Rain,72
2013-3-20,66,53,40,33,29,25,70,46,22,30.30,30.19,30.09,10,10,10,17,6,31,0.00,0,,33
2013-3-21,50,46,41,38,32,22,76,57,37,30.06,29.91,29.76,10,9,6,15,7,23,0.02,6,Rain-Thunderstorm,97
2013-3-22,46,43,40,46,43,39,100,95,89,29.85,29.79,29.73,10,3,1,15,9,20,0.26,8,Rain-Thunderstorm,62
2013-3-23,51,47,43,50,46,43,100,97,93,29.91,29.80,29.67,10,4,2,13,7,17,0.21,8,Rain-Thunderstorm,50
2013-3-24,48,42,35,47,37,27,100,73,45,30.13,29.88,29.68,10,7,1,30,16,40,T,7,Rain,303
2013-3-25,51,41,31,27,20,15,75,50,24,30.39,30.25,30.13,10,10,10,26,12,35,0.00,0,,317
2013-3-26,52,41,29,28,22,19,69,50,30,30.48,30.40,30.35,10,10,10,14,5,22,0.00,0,,309
2013-3-27,65,47,29,32,29,25,85,57,29,30.40,30.30,30.20,10,10,10,17,6,26,0.00,0,,154
2013-3-28,71,59,46,53,46,31,82,62,41,30.30,30.23,30.16,10,10,10,15,8,21,0.00,6,,173
2013-3-29,77,68,58,59,55,46,97,74,50,30.21,30.15,30.09,10,10,10,20,8,26,T,4,Rain,206
2013-3-30,71,65,58,63,60,58,100,87,73,30.10,30.02,29.93,10,7,2,13,6,18,0.38,5,Rain,194
2013-3-31,71,63,54,62,58,54,100,81,61,30.01,29.93,29.85,10,7,1,25,6,39,0.81,5,Rain-Thunderstorm,137